Time;durP1;ratioP1;P1;durP2;ratioP2;P2;SDS_P1;SDS_P2;PMS_P1;PMS_P2;Temp;Humidity;BMP_temperature;BMP_pressure;BME280_temperature;BME280_humidity;BME280_pressure;Samples;Min_cycle;Max_cycle;Signal;HPM_P1;HPM_P2
2022/05/18 00:01:01;;;;;;;10.60;6.22;;;21.70;91.00;;;;;;4994323;28;20503;-87
2022/05/18 00:03:35;;;;;;;10.48;6.45;;;21.60;91.10;;;;;;4977334;28;20495;-87
2022/05/18 00:06:02;;;;;;;11.70;6.45;;;21.60;91.10;;;;;;4992709;28;20018;-87
2022/05/18 00:08:28;;;;;;;12.10;6.72;;;21.60;91.30;;;;;;4977461;28;20041;-87
2022/05/18 00:10:54;;;;;;;11.80;7.40;;;21.50;91.40;;;;;;4976961;28;20035;-87
2022/05/18 00:13:20;;;;;;;11.65;6.68;;;21.50;91.50;;;;;;4977258;28;20552;-87
2022/05/18 00:15:47;;;;;;;12.13;6.85;;;21.50;91.60;;;;;;4993278;28;20073;-87
2022/05/18 00:18:13;;;;;;;11.60;7.47;;;21.50;91.60;;;;;;4976900;28;20046;-88
2022/05/18 00:20:39;;;;;;;10.75;6.93;;;21.40;91.70;;;;;;4993549;28;20043;-87
2022/05/18 00:23:06;;;;;;;11.43;6.65;;;21.40;91.70;;;;;;4976897;28;20023;-87
2022/05/18 00:25:38;;;;;;;11.07;7.25;;;21.40;91.80;;;;;;4993492;28;20019;-87
2022/05/18 00:28:04;;;;;;;14.48;7.75;;;21.30;91.80;;;;;;4997512;28;20024;-87
2022/05/18 00:30:31;;;;;;;9.77;6.47;;;21.30;91.90;;;;;;4993128;28;20050;-87
2022/05/18 00:33:03;;;;;;;11.10;7.45;;;21.30;92.00;;;;;;4993765;28;20023;-88
2022/05/18 00:35:29;;;;;;;11.52;7.05;;;21.20;92.10;;;;;;4978408;28;20575;-88
2022/05/18 00:37:55;;;;;;;13.20;7.68;;;21.20;92.20;;;;;;4993638;28;20034;-87
2022/05/18 00:40:21;;;;;;;14.50;7.88;;;21.20;92.30;;;;;;4977993;28;20133;-87
2022/05/18 00:42:47;;;;;;;14.32;7.70;;;21.10;92.40;;;;;;4978620;28;20030;-87
2022/05/18 00:45:14;;;;;;;14.63;8.13;;;21.10;92.50;;;;;;4995443;28;20019;-88
2022/05/18 00:47:40;;;;;;;9.50;7.72;;;21.10;92.50;;;;;;4980115;28;20037;-87
2022/05/18 00:50:08;;;;;;;11.55;7.20;;;21.00;92.60;;;;;;5000850;28;20495;-87
2022/05/18 00:52:41;;;;;;;10.93;7.50;;;21.00;92.70;;;;;;5000866;28;20034;-88
2022/05/18 00:55:11;;;;;;;14.90;7.72;;;21.00;92.80;;;;;;5002680;28;20031;-87
2022/05/18 00:57:43;;;;;;;12.30;7.25;;;21.00;92.90;;;;;;4996859;28;20029;-88
2022/05/18 01:00:11;;;;;;;10.32;7.50;;;20.90;92.90;;;;;;4993856;28;20026;-88
2022/05/18 01:02:44;;;;;;;14.93;8.52;;;20.90;93.10;;;;;;4993613;28;20038;-87
2022/05/18 01:05:14;;;;;;;12.38;7.68;;;20.90;93.20;;;;;;4993881;28;20042;-88
2022/05/18 01:07:49;;;;;;;12.95;8.02;;;20.80;93.20;;;;;;4993586;28;20479;-87
2022/05/18 01:10:15;;;;;;;13.73;8.10;;;20.80;93.30;;;;;;4993324;28;20041;-88
2022/05/18 01:12:41;;;;;;;12.77;7.50;;;20.80;93.30;;;;;;4977421;28;20030;-88
2022/05/18 01:15:10;;;;;;;12.20;8.38;;;20.70;93.40;;;;;;4977630;28;20038;-88
2022/05/18 01:17:39;;;;;;;10.43;8.02;;;20.70;93.50;;;;;;4995464;28;20031;-87
2022/05/18 01:20:14;;;;;;;11.27;7.70;;;20.60;93.60;;;;;;4997339;28;20026;-88
2022/05/18 01:22:57;;;;;;;13.18;8.15;;;20.60;93.60;;;;;;4997243;28;20033;-87
2022/05/18 01:25:39;;;;;;;10.48;8.00;;;20.60;93.70;;;;;;4997926;28;20469;-88
2022/05/18 01:28:06;;;;;;;11.77;8.00;;;20.60;93.80;;;;;;4998137;28;20090;-88
2022/05/18 01:30:33;;;;;;;11.05;7.80;;;20.50;93.90;;;;;;4980823;28;20034;-87
2022/05/18 01:33:03;;;;;;;14.10;8.35;;;20.50;94.00;;;;;;4997230;28;20025;-88
2022/05/18 01:35:31;;;;;;;12.20;8.98;;;20.50;94.10;;;;;;4996644;28;20023;-87
2022/05/18 01:37:57;;;;;;;10.82;8.52;;;20.50;94.20;;;;;;4996462;28;20026;-88
2022/05/18 01:40:32;;;;;;;10.95;7.63;;;20.40;94.20;;;;;;4996437;28;20049;-88
2022/05/18 01:43:12;;;;;;;12.63;9.10;;;20.40;94.30;;;;;;4996584;28;20027;-87
2022/05/18 01:45:38;;;;;;;12.00;8.88;;;20.40;94.40;;;;;;4996435;28;20116;-87
2022/05/18 01:48:12;;;;;;;14.95;9.55;;;20.30;94.40;;;;;;4996995;28;20026;-88
2022/05/18 01:50:39;;;;;;;12.38;8.68;;;20.30;94.50;;;;;;4995613;28;20034;-87
2022/05/18 01:53:05;;;;;;;12.35;8.70;;;20.30;94.70;;;;;;4996178;28;20023;-87
2022/05/18 01:55:32;;;;;;;13.73;9.43;;;20.30;94.70;;;;;;4979938;28;20054;-88
2022/05/18 01:57:58;;;;;;;14.77;8.80;;;20.20;94.80;;;;;;4996087;28;20014;-88
2022/05/18 02:00:24;;;;;;;11.25;8.50;;;20.20;94.90;;;;;;4980119;28;20022;-88
2022/05/18 02:02:50;;;;;;;12.60;9.00;;;20.20;95.00;;;;;;4979657;28;20023;-87
2022/05/18 02:05:16;;;;;;;11.07;8.65;;;20.20;95.10;;;;;;4979301;28;20022;-88
2022/05/18 02:07:42;;;;;;;13.98;8.85;;;20.10;95.10;;;;;;4979498;28;20392;-88
2022/05/18 02:10:08;;;;;;;13.35;8.50;;;20.10;95.20;;;;;;4979256;28;20037;-88
2022/05/18 02:12:35;;;;;;;12.23;8.77;;;20.10;95.20;;;;;;4979316;28;20031;-88
2022/05/18 02:15:01;;;;;;;13.18;9.02;;;20.10;95.30;;;;;;4979586;28;20058;-88
2022/05/18 02:17:26;;;;;;;14.00;8.68;;;20.00;95.40;;;;;;4979733;28;20030;-88
2022/05/18 02:19:52;;;;;;;12.35;8.20;;;20.00;95.40;;;;;;4978964;28;20018;-88
2022/05/18 02:22:18;;;;;;;11.25;8.30;;;20.00;95.50;;;;;;4979860;28;20088;-88
2022/05/18 02:24:44;;;;;;;12.50;7.88;;;20.00;95.50;;;;;;4979161;28;20035;-86
2022/05/18 02:27:09;;;;;;;11.68;8.35;;;19.90;95.60;;;;;;4978899;28;20050;-88
2022/05/18 02:29:35;;;;;;;12.75;8.50;;;19.90;95.70;;;;;;4994979;28;20468;-88
2022/05/18 02:32:01;;;;;;;13.57;8.45;;;19.90;95.80;;;;;;4996445;28;20049;-88
2022/05/18 02:34:27;;;;;;;12.43;8.27;;;19.90;95.90;;;;;;4978843;28;20089;-87
2022/05/18 02:36:53;;;;;;;16.33;9.68;;;19.80;95.90;;;;;;4978655;28;20480;-87
2022/05/18 02:39:20;;;;;;;13.50;8.07;;;19.80;96.00;;;;;;4978744;28;20042;-88
2022/05/18 02:41:48;;;;;;;11.57;7.93;;;19.80;96.00;;;;;;4978901;28;20476;-87
2022/05/18 02:44:13;;;;;;;13.35;8.85;;;19.80;96.10;;;;;;4995389;28;20053;-88
2022/05/18 02:46:39;;;;;;;10.95;8.57;;;19.70;96.20;;;;;;4978801;28;20105;-88
2022/05/18 02:49:05;;;;;;;11.50;8.25;;;19.70;96.20;;;;;;4978826;28;20038;-88
2022/05/18 02:51:30;;;;;;;10.35;8.18;;;19.70;96.30;;;;;;4994626;28;20468;-87
2022/05/18 02:53:57;;;;;;;12.73;8.30;;;19.70;96.40;;;;;;4978749;28;20034;-88
2022/05/18 02:56:26;;;;;;;12.85;8.05;;;19.60;96.40;;;;;;4978908;28;20093;-88
2022/05/18 02:58:54;;;;;;;12.13;7.90;;;19.60;96.40;;;;;;4995085;28;20050;-88
2022/05/18 03:01:25;;;;;;;14.52;8.18;;;19.60;96.50;;;;;;4994743;28;20042;-88
2022/05/18 03:03:53;;;;;;;12.00;7.88;;;19.50;96.60;;;;;;4994918;28;20117;-88
2022/05/18 03:06:21;;;;;;;12.23;8.02;;;19.60;96.70;;;;;;4996032;28;20026;-88
2022/05/18 03:08:47;;;;;;;12.63;7.65;;;19.50;96.70;;;;;;4995033;28;20033;-87
2022/05/18 03:11:14;;;;;;;10.40;7.55;;;19.50;96.80;;;;;;4995900;28;20030;-87
2022/05/18 03:13:40;;;;;;;12.10;7.85;;;19.50;96.90;;;;;;4994535;28;20027;-88
2022/05/18 03:16:06;;;;;;;9.23;6.93;;;19.50;97.00;;;;;;4993690;28;20026;-88
2022/05/18 03:18:33;;;;;;;9.48;6.95;;;19.50;97.00;;;;;;4993291;28;20030;-88
2022/05/18 03:23:43;;;;;;;10.32;7.32;;;19.40;97.20;;;;;;4997915;28;20054;-88
2022/05/18 03:26:15;;;;;;;10.50;7.22;;;19.40;97.30;;;;;;4986622;28;20018;-87
2022/05/18 03:28:44;;;;;;;9.45;7.55;;;19.40;97.40;;;;;;5008867;28;20026;-87
2022/05/18 03:31:10;;;;;;;10.10;6.95;;;19.40;97.50;;;;;;5008982;28;20049;-87
2022/05/18 03:33:37;;;;;;;10.73;7.40;;;19.30;97.50;;;;;;5010028;28;20224;-87
2022/05/18 03:36:05;;;;;;;11.13;6.97;;;19.30;97.50;;;;;;5022964;23;20057;-88
2022/05/18 03:38:31;;;;;;;10.68;6.72;;;19.30;97.50;;;;;;5032704;28;20036;-88
2022/05/18 03:40:56;;;;;;;10.02;6.85;;;19.20;97.50;;;;;;5028424;28;20021;-86
2022/05/18 03:43:23;;;;;;;10.27;6.40;;;19.20;97.60;;;;;;5015674;28;20021;-87
2022/05/18 03:45:49;;;;;;;8.38;6.30;;;19.20;97.60;;;;;;5024023;28;20055;-87
2022/05/18 03:48:16;;;;;;;9.40;6.85;;;19.20;97.90;;;;;;5036537;28;20064;-87
2022/05/18 03:50:44;;;;;;;7.72;6.28;;;19.20;97.70;;;;;;5020531;28;20091;-87
2022/05/18 03:53:10;;;;;;;10.93;6.55;;;19.10;97.80;;;;;;5036975;28;20109;-87
2022/05/18 03:55:40;;;;;;;9.77;6.20;;;19.20;97.80;;;;;;5037114;28;20020;-87
2022/05/18 03:58:06;;;;;;;8.68;6.22;;;19.10;97.90;;;;;;5020519;28;20041;-88
2022/05/18 04:00:33;;;;;;;9.57;6.65;;;19.10;98.00;;;;;;5020570;28;20029;-88
2022/05/18 04:03:00;;;;;;;11.18;6.57;;;19.00;98.10;;;;;;5036874;28;20450;-88
2022/05/18 04:05:26;;;;;;;8.40;6.35;;;19.00;98.20;;;;;;5020429;28;20035;-87
2022/05/18 04:07:52;;;;;;;12.60;7.43;;;19.00;98.30;;;;;;5004246;28;20032;-87
2022/05/18 04:10:18;;;;;;;9.60;6.45;;;19.00;98.40;;;;;;5021814;28;20033;-87
2022/05/18 04:12:44;;;;;;;8.57;6.35;;;19.00;98.50;;;;;;5037935;28;20470;-88
2022/05/18 04:15:16;;;;;;;9.77;6.38;;;19.00;98.60;;;;;;5022028;28;20390;-87
2022/05/18 04:17:45;;;;;;;8.85;5.57;;;19.00;98.60;;;;;;5038935;28;20393;-88
2022/05/18 04:20:17;;;;;;;10.95;7.28;;;18.90;98.70;;;;;;5039888;28;20405;-87
2022/05/18 04:22:44;;;;;;;9.48;6.07;;;18.90;98.80;;;;;;5039407;28;20020;-87
2022/05/18 04:25:11;;;;;;;10.15;5.82;;;19.00;98.90;;;;;;5021499;28;20091;-88
2022/05/18 04:27:37;;;;;;;8.52;5.65;;;18.90;99.00;;;;;;5038917;28;20100;-87
2022/05/18 04:30:05;;;;;;;8.20;5.80;;;18.90;99.00;;;;;;5006526;28;20063;-87
2022/05/18 04:32:30;;;;;;;6.78;5.57;;;18.90;99.10;;;;;;5058386;28;20048;-88
2022/05/18 04:34:56;;;;;;;10.55;5.43;;;18.80;99.10;;;;;;5021815;28;20045;-88
2022/05/18 04:37:22;;;;;;;9.27;5.72;;;18.90;99.20;;;;;;5005630;28;20033;-88
2022/05/18 04:39:47;;;;;;;8.73;4.75;;;18.90;99.20;;;;;;5021708;28;20040;-87
2022/05/18 04:42:14;;;;;;;7.53;5.00;;;18.90;99.30;;;;;;5001774;28;20021;-87
2022/05/18 04:44:40;;;;;;;9.70;5.50;;;18.80;99.20;;;;;;5017137;28;20032;-88
2022/05/18 04:47:06;;;;;;;8.32;4.95;;;18.80;99.20;;;;;;5033241;28;20025;-88
2022/05/18 04:49:32;;;;;;;7.10;5.03;;;18.80;99.30;;;;;;5016747;28;20433;-88
2022/05/18 04:51:59;;;;;;;7.93;5.00;;;18.80;99.40;;;;;;5017025;28;20479;-88
2022/05/18 04:54:24;;;;;;;8.45;5.32;;;18.80;99.60;;;;;;5020436;28;20026;-87
2022/05/18 04:56:50;;;;;;;7.38;4.90;;;18.80;99.70;;;;;;5036773;28;20025;-88
2022/05/18 04:59:16;;;;;;;9.13;5.70;;;18.80;99.90;;;;;;5020084;28;20479;-88
2022/05/18 05:01:43;;;;;;;8.20;5.22;;;18.80;99.90;;;;;;5003539;28;20057;-87
2022/05/18 05:04:10;;;;;;;7.90;4.13;;;18.90;99.90;;;;;;5003676;28;20075;-88
2022/05/18 05:06:40;;;;;;;8.20;4.88;;;18.80;99.90;;;;;;5019603;28;20025;-88
2022/05/18 05:09:07;;;;;;;8.13;5.38;;;18.90;99.90;;;;;;5037629;28;20099;-88
2022/05/18 05:11:33;;;;;;;9.82;5.72;;;18.90;99.90;;;;;;5036292;28;20061;-88
2022/05/18 05:13:59;;;;;;;11.68;5.75;;;18.90;99.90;;;;;;5036421;28;20021;-87
2022/05/18 05:16:28;;;;;;;7.93;4.60;;;18.90;99.90;;;;;;5036110;28;20482;-87
2022/05/18 05:18:53;;;;;;;5.60;4.30;;;19.00;99.90;;;;;;5035816;28;20037;-88
2022/05/18 05:21:20;;;;;;;6.60;4.50;;;19.00;99.90;;;;;;5019256;28;20030;-88
2022/05/18 05:23:46;;;;;;;9.57;5.20;;;19.00;99.90;;;;;;5018108;28;20108;-87
2022/05/18 05:26:13;;;;;;;6.78;4.80;;;19.00;99.90;;;;;;5035072;28;20483;-87
2022/05/18 05:28:39;;;;;;;8.90;5.28;;;19.00;99.90;;;;;;5035242;28;20029;-86
2022/05/18 05:31:07;;;;;;;8.45;5.00;;;19.00;99.90;;;;;;5033938;28;20029;-86
2022/05/18 05:33:34;;;;;;;8.25;4.50;;;19.10;99.90;;;;;;5037087;28;20028;-87
2022/05/18 05:36:00;;;;;;;7.32;4.40;;;19.00;99.90;;;;;;5035815;28;20060;-86
2022/05/18 05:38:27;;;;;;;5.57;4.40;;;19.10;99.90;;;;;;5035555;28;20030;-86
2022/05/18 05:40:52;;;;;;;10.85;4.93;;;19.10;99.90;;;;;;5019416;28;20022;-86
2022/05/18 05:43:18;;;;;;;8.23;4.85;;;19.10;99.90;;;;;;5002685;28;20429;-86
2022/05/18 05:46:13;;;;;;;6.72;4.50;;;19.10;99.90;;;;;;5018657;28;20109;-86
2022/05/18 05:48:41;;;;;;;10.10;5.05;;;19.20;99.90;;;;;;5034681;28;20040;-87
2022/05/18 05:51:13;;;;;;;8.70;4.80;;;19.20;99.90;;;;;;5035427;28;20053;-86
2022/05/18 05:53:43;;;;;;;8.45;4.95;;;19.20;99.90;;;;;;5003736;28;20127;-87
2022/05/18 05:56:10;;;;;;;9.18;4.65;;;19.30;99.90;;;;;;5036591;28;20022;-86
2022/05/18 05:58:37;;;;;;;7.53;4.95;;;19.30;99.90;;;;;;5035171;28;20095;-86
2022/05/18 06:01:12;;;;;;;8.20;5.10;;;19.30;99.90;;;;;;5035251;28;20056;-87
2022/05/18 06:03:39;;;;;;;7.80;4.55;;;19.30;99.90;;;;;;5034133;28;20040;-87
2022/05/18 06:06:05;;;;;;;7.93;4.90;;;19.40;99.90;;;;;;5034949;28;20017;-87
2022/05/18 06:08:32;;;;;;;7.53;4.80;;;19.40;99.90;;;;;;5036043;28;20063;-87
2022/05/18 06:10:59;;;;;;;9.93;5.05;;;19.50;99.90;;;;;;5020225;28;20061;-87
2022/05/18 06:13:28;;;;;;;7.32;5.00;;;19.50;99.90;;;;;;5052870;28;20029;-88
2022/05/18 06:15:54;;;;;;;8.90;4.93;;;19.60;99.90;;;;;;5040750;28;20017;-87
2022/05/18 06:18:20;;;;;;;10.65;5.15;;;19.60;99.90;;;;;;5009457;28;20442;-87
2022/05/18 06:20:47;;;;;;;8.43;5.55;;;19.70;99.90;;;;;;5023396;28;20026;-86
2022/05/18 06:23:14;;;;;;;7.50;4.70;;;19.70;99.90;;;;;;5020821;28;20021;-86
2022/05/18 06:25:41;;;;;;;8.68;5.13;;;19.80;99.90;;;;;;5018962;28;20375;-86
2022/05/18 06:28:08;;;;;;;10.60;5.38;;;19.90;99.90;;;;;;5035121;28;20060;-87
2022/05/18 06:30:35;;;;;;;7.78;5.07;;;19.90;99.90;;;;;;5035828;28;20041;-86
2022/05/18 06:33:01;;;;;;;6.63;4.70;;;20.00;99.90;;;;;;5035335;28;20031;-86
2022/05/18 06:35:27;;;;;;;7.43;4.78;;;20.00;99.90;;;;;;5018822;28;20046;-86
2022/05/18 06:37:53;;;;;;;9.55;4.63;;;20.10;99.90;;;;;;5018881;28;20029;-87
2022/05/18 06:40:19;;;;;;;8.85;4.80;;;20.10;99.90;;;;;;5019190;28;20435;-87
2022/05/18 06:42:45;;;;;;;7.53;4.55;;;20.20;99.90;;;;;;5019228;28;20029;-87
2022/05/18 06:45:12;;;;;;;6.53;4.75;;;20.20;99.90;;;;;;5035095;28;20028;-87
2022/05/18 06:47:38;;;;;;;6.75;4.13;;;20.30;99.90;;;;;;5035288;28;20017;-87
2022/05/18 06:50:07;;;;;;;8.85;4.43;;;20.30;99.90;;;;;;5035502;28;20042;-86
2022/05/18 06:52:33;;;;;;;8.93;4.78;;;20.40;99.90;;;;;;5039299;28;20018;-86
2022/05/18 06:54:59;;;;;;;7.35;4.70;;;20.50;99.80;;;;;;5018624;28;20030;-86
2022/05/18 06:57:24;;;;;;;14.52;6.10;;;20.50;99.70;;;;;;5024026;28;20037;-84
2022/05/18 06:59:50;;;;;;;11.63;5.82;;;20.60;99.50;;;;;;5039657;28;20086;-86
2022/05/18 07:02:16;;;;;;;9.23;5.40;;;20.60;98.80;;;;;;5039645;28;20010;-86
2022/05/18 07:04:42;;;;;;;7.45;5.78;;;20.70;98.60;;;;;;5053266;28;20036;-87
2022/05/18 07:07:10;;;;;;;8.13;5.93;;;20.80;98.30;;;;;;5011452;28;20028;-87
2022/05/18 07:09:36;;;;;;;10.05;5.45;;;20.90;98.10;;;;;;5015754;28;20018;-87
2022/05/18 07:12:02;;;;;;;9.73;5.95;;;20.90;97.90;;;;;;5054265;28;20093;-87
2022/05/18 07:14:29;;;;;;;9.38;6.38;;;21.00;97.80;;;;;;5052168;28;20092;-87
2022/05/18 07:16:56;;;;;;;9.45;6.82;;;21.10;97.40;;;;;;5008509;28;20455;-87
2022/05/18 07:19:23;;;;;;;11.43;6.30;;;21.10;97.20;;;;;;5037168;28;20034;-86
2022/05/18 07:21:52;;;;;;;9.73;5.90;;;21.20;97.10;;;;;;5036841;28;20013;-86
2022/05/18 07:24:18;;;;;;;9.18;7.18;;;21.20;97.00;;;;;;5035049;28;20056;-86
2022/05/18 07:26:47;;;;;;;9.18;6.90;;;21.30;96.90;;;;;;5041272;28;20048;-86
2022/05/18 07:29:12;;;;;;;9.98;7.05;;;21.30;96.70;;;;;;5055022;28;20022;-87
2022/05/18 07:34:26;;;;;;;12.02;7.68;;;21.40;96.10;;;;;;5036585;28;20045;-86
2022/05/18 07:36:55;;;;;;;11.07;7.03;;;21.50;95.90;;;;;;5020978;28;20029;-85
2022/05/18 07:39:22;;;;;;;9.93;6.93;;;21.50;95.80;;;;;;5037348;28;20082;-87
2022/05/18 07:41:48;;;;;;;9.07;7.00;;;21.60;95.90;;;;;;5037527;28;20055;-87
2022/05/18 07:44:14;;;;;;;9.35;7.10;;;21.70;95.90;;;;;;5037200;28;20025;-86
2022/05/18 07:46:40;;;;;;;9.75;6.72;;;21.70;95.80;;;;;;5020573;28;20444;-86
2022/05/18 07:49:06;;;;;;;12.43;7.13;;;21.80;95.70;;;;;;5020581;28;20074;-87
2022/05/18 07:51:33;;;;;;;16.92;8.05;;;21.80;95.50;;;;;;5036496;28;20025;-87
2022/05/18 07:53:59;;;;;;;13.20;8.18;;;21.90;95.50;;;;;;5003447;28;20032;-86
2022/05/18 07:56:25;;;;;;;10.90;7.18;;;21.90;95.30;;;;;;5036236;28;20027;-86
2022/05/18 07:58:51;;;;;;;12.75;7.63;;;22.00;95.10;;;;;;5036423;28;20017;-86
2022/05/18 08:01:16;;;;;;;11.60;8.30;;;22.00;94.90;;;;;;5003358;28;20026;-86
2022/05/18 08:03:42;;;;;;;14.05;8.30;;;22.00;94.80;;;;;;5019593;28;20021;-87
2022/05/18 08:06:10;;;;;;;12.15;7.38;;;22.10;94.80;;;;;;5003323;28;20497;-86
2022/05/18 08:08:35;;;;;;;13.23;7.63;;;22.10;94.70;;;;;;5053857;28;20055;-86
2022/05/18 08:16:31;;;;;;;13.38;9.10;;;22.20;94.70;;;;;;5024844;28;20113;-85
2022/05/18 08:18:57;;;;;;;14.38;9.35;;;22.30;94.90;;;;;;5019614;28;20029;-85
2022/05/18 08:21:24;;;;;;;17.98;8.90;;;22.40;94.60;;;;;;5053781;28;20383;-85
2022/05/18 08:23:50;;;;;;;12.68;10.00;;;22.40;94.50;;;;;;5035833;28;20013;-85
2022/05/18 08:26:16;;;;;;;11.40;8.52;;;22.50;94.30;;;;;;5019374;28;20102;-86
2022/05/18 08:28:42;;;;;;;14.02;9.73;;;22.50;94.30;;;;;;5006074;28;20371;-86
2022/05/18 08:31:08;;;;;;;14.00;9.48;;;22.60;94.50;;;;;;5039747;28;20025;-86
2022/05/18 08:33:35;;;;;;;11.98;9.93;;;22.60;94.30;;;;;;5023765;28;20025;-86
2022/05/18 08:36:08;;;;;;;15.02;10.38;;;22.70;94.40;;;;;;5023024;28;20127;-86
2022/05/18 08:38:36;;;;;;;14.25;10.23;;;22.70;94.20;;;;;;5039916;28;20481;-86
2022/05/18 08:41:22;;;;;;;15.48;8.77;;;22.80;94.10;;;;;;5039474;28;20116;-87
2022/05/18 08:43:51;;;;;;;10.98;8.88;;;22.80;94.10;;;;;;5039601;28;20123;-86
2022/05/18 08:46:40;;;;;;;14.98;9.35;;;22.90;94.10;;;;;;5039636;28;20065;-87
2022/05/18 08:49:28;;;;;;;12.50;8.88;;;22.90;94.10;;;;;;5040106;28;20031;-86
2022/05/18 08:52:03;;;;;;;13.57;9.38;;;23.00;94.10;;;;;;5039759;28;20025;-87
2022/05/18 08:54:33;;;;;;;10.70;7.60;;;23.00;94.00;;;;;;5038935;28;20086;-86
2022/05/18 08:57:02;;;;;;;9.95;7.95;;;23.10;93.90;;;;;;5039722;28;20489;-86
2022/05/18 08:59:33;;;;;;;11.27;7.78;;;23.10;94.00;;;;;;5039361;28;20411;-86
2022/05/18 09:02:03;;;;;;;12.48;9.02;;;23.20;94.10;;;;;;5039457;28;20033;-86
2022/05/18 09:04:43;;;;;;;12.93;8.40;;;23.20;94.20;;;;;;5040594;28;20021;-86
2022/05/18 09:07:14;;;;;;;8.77;6.75;;;23.30;94.20;;;;;;5042528;28;20025;-86
2022/05/18 09:10:14;;;;;;;11.93;7.43;;;23.40;94.30;;;;;;5042582;28;20029;-86
2022/05/18 09:12:43;;;;;;;11.07;7.87;;;23.40;94.30;;;;;;5061066;28;20100;-86
2022/05/18 09:15:13;;;;;;;11.48;9.38;;;23.50;94.40;;;;;;5041856;28;20263;-86
2022/05/18 09:17:55;;;;;;;11.75;8.55;;;23.60;94.30;;;;;;5057331;28;20114;-86
2022/05/18 09:20:32;;;;;;;12.77;8.30;;;23.60;94.00;;;;;;5056463;28;20024;-86
2022/05/18 09:23:12;;;;;;;8.63;6.90;;;23.70;94.00;;;;;;5038683;28;20068;-86
2022/05/18 09:25:40;;;;;;;10.63;8.50;;;23.80;94.10;;;;;;5038917;28;20032;-86
2022/05/18 09:28:28;;;;;;;10.35;7.90;;;23.80;94.10;;;;;;5038820;28;20083;-85
2022/05/18 09:31:12;;;;;;;12.32;8.25;;;23.90;93.90;;;;;;5038791;28;20382;-85
2022/05/18 09:33:56;;;;;;;13.45;8.35;;;24.00;93.80;;;;;;5038596;28;20160;-86
2022/05/18 09:36:51;;;;;;;12.68;8.02;;;24.00;93.70;;;;;;5038586;28;20490;-85
2022/05/18 09:39:21;;;;;;;8.60;7.68;;;24.10;93.60;;;;;;5039171;28;20043;-86
2022/05/18 09:41:54;;;;;;;10.38;8.10;;;24.20;93.60;;;;;;5039226;28;20485;-85
2022/05/18 09:44:40;;;;;;;10.52;7.28;;;24.20;93.60;;;;;;5040299;28;20057;-86
2022/05/18 09:47:07;;;;;;;12.98;7.53;;;24.30;93.60;;;;;;5039354;28;20082;-86
2022/05/18 09:49:42;;;;;;;10.38;7.72;;;24.40;93.50;;;;;;5021819;28;20064;-86
2022/05/18 09:52:09;;;;;;;13.13;7.35;;;24.40;93.30;;;;;;5038316;28;20021;-87
2022/05/18 09:54:37;;;;;;;11.77;7.53;;;24.50;93.10;;;;;;5021620;28;20386;-86
2022/05/18 09:57:08;;;;;;;12.13;7.28;;;24.50;92.90;;;;;;5055951;28;20116;-86
2022/05/18 09:59:40;;;;;;;8.50;6.70;;;24.60;92.90;;;;;;5037888;28;20029;-86
2022/05/18 10:07:48;;;;;;;8.85;5.88;;;24.80;92.80;;;;;;5041123;28;20036;-87
2022/05/18 10:10:26;;;;;;;10.05;7.63;;;24.80;92.60;;;;;;5038082;28;20048;-87
2022/05/18 10:12:55;;;;;;;9.95;6.80;;;24.90;92.40;;;;;;5038013;28;20024;-87
2022/05/18 10:15:38;;;;;;;10.93;6.95;;;25.00;92.20;;;;;;5037835;28;20124;-87
2022/05/18 10:18:19;;;;;;;10.98;7.10;;;25.00;92.00;;;;;;5037731;28;20013;-87
2022/05/18 10:21:10;;;;;;;11.00;6.72;;;25.10;92.10;;;;;;5037924;28;20033;-87
2022/05/18 10:23:45;;;;;;;9.05;6.30;;;25.20;92.30;;;;;;5055681;28;20025;-87
2022/05/18 10:26:29;;;;;;;11.45;7.03;;;25.20;92.20;;;;;;5038039;28;20033;-87
2022/05/18 10:29:20;;;;;;;10.70;7.43;;;25.30;92.20;;;;;;5037742;28;20032;-87
2022/05/18 10:32:18;;;;;;;10.18;7.22;;;25.40;92.10;;;;;;5037683;28;20033;-87
2022/05/18 10:34:47;;;;;;;10.93;7.28;;;25.40;91.90;;;;;;5037506;28;20041;-86
2022/05/18 10:37:23;;;;;;;8.75;6.88;;;25.50;91.80;;;;;;5037496;28;20466;-87
2022/05/18 10:39:49;;;;;;;11.02;7.38;;;25.50;91.50;;;;;;5037386;28;20031;-86
2022/05/18 10:42:27;;;;;;;10.50;6.82;;;25.60;91.40;;;;;;5004660;28;20116;-87
2022/05/18 10:44:55;;;;;;;10.48;7.28;;;25.60;91.40;;;;;;5037656;28;20377;-86
2022/05/18 10:47:36;;;;;;;12.50;8.50;;;25.70;91.40;;;;;;5037313;28;20117;-87
2022/05/18 10:50:11;;;;;;;;;;;25.80;91.10;;;;;;5037032;28;20435;-85
2022/05/18 10:52:36;;;;;;;8.10;5.85;;;25.80;91.30;;;;;;5036897;28;20431;-86
2022/05/18 10:55:14;;;;;;;11.55;6.20;;;25.80;91.00;;;;;;5004212;28;20053;-86
2022/05/18 10:57:46;;;;;;;10.18;7.43;;;25.90;90.80;;;;;;5036742;28;20115;-86
2022/05/18 11:00:15;;;;;;;9.55;6.30;;;25.90;90.40;;;;;;5036866;28;20458;-86
2022/05/18 11:02:49;;;;;;;13.30;7.47;;;25.90;90.10;;;;;;5036398;28;20040;-87
2022/05/18 11:05:15;;;;;;;10.30;7.38;;;25.90;89.80;;;;;;5036785;28;20029;-87
2022/05/18 11:07:43;;;;;;;7.95;6.18;;;26.00;89.80;;;;;;5036849;28;20442;-88
2022/05/18 11:10:09;;;;;;;10.60;7.10;;;26.10;89.90;;;;;;5054607;28;20498;-87
2022/05/18 11:12:53;;;;;;;7.97;6.30;;;26.10;89.70;;;;;;5036609;28;20032;-87
2022/05/18 11:15:37;;;;;;;11.13;5.97;;;26.10;89.80;;;;;;5036903;28;20119;-88
2022/05/18 11:18:18;;;;;;;7.63;5.43;;;26.20;90.10;;;;;;5037542;28;20017;-89
2022/05/18 11:20:59;;;;;;;;;;;26.30;90.00;;;;;;5037551;28;20029;-90
2022/05/18 11:23:52;;;;;;;9.02;4.95;;;26.30;90.00;;;;;;5037379;28;19940;-91
2022/05/18 11:26:24;;;;;;;9.38;5.07;;;26.30;89.70;;;;;;5037707;28;20055;-89
2022/05/18 11:28:57;;;;;;;7.15;5.28;;;26.40;89.30;;;;;;5037732;28;20021;-90
2022/05/18 11:31:41;;;;;;;7.93;5.13;;;26.50;89.20;;;;;;5037565;28;20470;-90
2022/05/18 11:34:45;;;;;;;7.75;4.88;;;26.60;89.30;;;;;;5037441;28;20106;-89
2022/05/18 11:37:32;;;;;;;9.10;5.03;;;26.60;89.70;;;;;;5037398;28;20136;-91
2022/05/18 11:40:07;;;;;;;9.38;6.38;;;26.70;89.50;;;;;;5037050;28;20517;-89
2022/05/18 11:42:57;;;;;;;8.43;5.55;;;26.80;87.70;;;;;;5036891;28;20021;-89
2022/05/18 11:45:50;;;;;;;7.97;5.37;;;26.90;87.70;;;;;;5037125;28;20124;-88
2022/05/18 11:48:47;;;;;;;8.15;4.90;;;27.00;87.90;;;;;;5056979;28;20032;-88
2022/05/18 11:51:18;;;;;;;9.98;5.78;;;27.00;87.40;;;;;;5055448;28;20033;-89
2022/05/18 11:54:22;;;;;;;9.32;5.18;;;27.10;86.10;;;;;;5039268;28;20051;-89
2022/05/18 11:57:03;;;;;;;7.32;4.63;;;27.10;85.70;;;;;;5044274;28;20033;-88
2022/05/18 12:00:07;;;;;;;7.25;5.30;;;27.20;86.20;;;;;;5036752;28;20029;-89
2022/05/18 12:02:42;;;;;;;8.65;5.18;;;27.20;85.80;;;;;;5035663;28;20028;-89
2022/05/18 12:05:39;;;;;;;8.98;5.03;;;27.20;85.60;;;;;;5054497;28;20032;-89
2022/05/18 12:08:30;;;;;;;10.38;5.97;;;27.30;85.10;;;;;;5036430;28;20070;-89
2022/05/18 12:10:58;;;;;;;17.83;5.82;;;27.40;84.30;;;;;;5054049;28;20111;-89
2022/05/18 12:13:51;;;;;;;9.52;4.32;;;27.40;84.10;;;;;;5036305;28;20041;-89
2022/05/18 12:16:33;;;;;;;6.28;4.00;;;27.50;84.40;;;;;;5036504;28;20382;-89
2022/05/18 12:19:22;;;;;;;5.80;4.50;;;27.50;84.90;;;;;;5036603;28;20021;-89
2022/05/18 12:22:02;;;;;;;8.13;5.65;;;27.60;84.80;;;;;;5035364;28;20037;-90
2022/05/18 12:24:29;;;;;;;8.30;4.28;;;27.60;83.70;;;;;;5036859;28;20025;-89
2022/05/18 12:26:56;;;;;;;8.13;5.68;;;27.70;83.40;;;;;;5021918;28;20427;-89
2022/05/18 12:29:25;;;;;;;7.30;4.75;;;27.80;82.70;;;;;;5021967;28;20029;-89
2022/05/18 12:31:54;;;;;;;7.13;5.20;;;27.70;82.50;;;;;;5037867;28;20383;-89
2022/05/18 12:34:35;;;;;;;10.02;4.88;;;27.80;82.20;;;;;;5039474;28;20044;-88
2022/05/18 12:37:22;;;;;;;8.98;4.40;;;27.80;81.50;;;;;;5058255;28;20037;-89
2022/05/18 12:39:50;;;;;;;7.35;3.30;;;27.90;81.40;;;;;;5040063;28;20108;-89
2022/05/18 12:42:27;;;;;;;4.68;3.53;;;27.90;82.10;;;;;;5057505;28;20084;-89
2022/05/18 12:45:03;;;;;;;6.97;4.43;;;27.90;82.10;;;;;;5040208;28;20070;-90
2022/05/18 12:47:52;;;;;;;6.75;3.83;;;27.90;80.50;;;;;;5038492;28;20116;-89
2022/05/18 12:50:40;;;;;;;6.00;3.65;;;27.90;80.50;;;;;;5023526;28;20421;-89
2022/05/18 12:53:24;;;;;;;7.35;4.22;;;27.90;80.30;;;;;;5036451;28;20025;-88
2022/05/18 12:56:00;;;;;;;6.30;3.72;;;27.90;79.00;;;;;;5036314;28;20021;-88
2022/05/18 12:58:30;;;;;;;6.80;4.20;;;27.90;79.30;;;;;;5054051;28;20017;-88
2022/05/18 13:01:00;;;;;;;;;;;27.90;79.10;;;;;;5036437;28;20551;-88
2022/05/18 13:03:42;;;;;;;7.43;3.70;;;27.90;79.70;;;;;;5036028;28;20006;-87
2022/05/18 13:06:34;;;;;;;9.90;4.45;;;27.90;79.70;;;;;;5035726;28;20021;-86
2022/05/18 13:09:25;;;;;;;7.75;4.05;;;28.00;80.00;;;;;;5035673;28;20051;-85
2022/05/18 13:11:59;;;;;;;15.68;5.28;;;28.00;80.40;;;;;;5035690;28;20029;-86
2022/05/18 13:14:34;;;;;;;7.53;4.10;;;28.10;80.30;;;;;;5055516;28;20028;-87
2022/05/18 13:16:59;;;;;;;6.95;4.50;;;28.10;80.30;;;;;;5039387;28;20032;-88
2022/05/18 13:19:31;;;;;;;9.55;4.30;;;28.10;80.40;;;;;;5039216;28;20021;-88